createdAt,value
2018-10-12T00:01:26.183Z,17.66
2018-10-12T00:03:55.230Z,17.66
2018-10-12T00:06:24.603Z,17.65
2018-10-12T00:08:53.546Z,17.65
2018-10-12T00:11:22.390Z,17.66
2018-10-12T00:13:51.922Z,17.64
2018-10-12T00:16:20.899Z,17.67
2018-10-12T00:18:49.760Z,17.66
2018-10-12T00:21:18.688Z,17.67
2018-10-12T00:23:47.524Z,17.67
2018-10-12T00:26:16.590Z,17.68
2018-10-12T00:28:45.997Z,17.71
2018-10-12T00:31:14.889Z,17.71
2018-10-12T00:33:44.032Z,17.70
2018-10-12T00:36:12.979Z,17.73
2018-10-12T00:38:42.043Z,17.76
2018-10-12T00:41:11.027Z,17.75
2018-10-12T00:43:39.896Z,17.74
2018-10-12T00:46:08.961Z,17.74
2018-10-12T00:48:37.893Z,17.72
2018-10-12T00:51:06.842Z,17.72
2018-10-12T00:53:36.334Z,17.70
2018-10-12T00:56:05.554Z,17.69
2018-10-12T00:58:34.561Z,17.68
2018-10-12T01:01:03.698Z,17.60
2018-10-12T01:03:32.729Z,17.63
2018-10-12T01:06:01.949Z,17.62
2018-10-12T01:08:31.422Z,17.60
2018-10-12T01:11:00.316Z,17.60
2018-10-12T01:13:29.333Z,17.60
2018-10-12T01:15:58.197Z,17.57
2018-10-12T01:18:27.722Z,17.57
2018-10-12T01:20:56.693Z,17.56
2018-10-12T01:23:25.669Z,17.55
2018-10-12T01:25:54.596Z,17.55
2018-10-12T01:28:23.787Z,17.54
2018-10-12T01:30:52.646Z,17.55
2018-10-12T01:33:21.647Z,17.55
2018-10-12T01:35:50.705Z,17.55
2018-10-12T01:38:19.652Z,17.54
2018-10-12T01:40:48.596Z,17.51
2018-10-12T01:43:17.747Z,17.49
2018-10-12T01:45:46.697Z,17.47
2018-10-12T01:48:16.537Z,17.44
2018-10-12T01:50:45.561Z,17.41
2018-10-12T01:53:14.508Z,17.37
2018-10-12T01:55:43.896Z,17.30
2018-10-12T01:58:12.968Z,17.33
2018-10-12T02:00:42.089Z,17.30
2018-10-12T02:03:11.652Z,17.28
2018-10-12T02:05:40.586Z,17.25
2018-10-12T02:08:09.723Z,17.22
2018-10-12T02:10:39.641Z,17.19
2018-10-12T02:13:08.493Z,17.17
2018-10-12T02:15:39.266Z,17.09
2018-10-12T02:18:08.975Z,17.13
2018-10-12T02:20:37.945Z,17.10
2018-10-12T02:23:07.248Z,17.03
2018-10-12T02:25:37.098Z,17.05
2018-10-12T02:28:06.088Z,17.02
2018-10-12T02:30:35.143Z,17.01
2018-10-12T02:33:03.943Z,16.98
2018-10-12T02:35:32.973Z,16.96
2018-10-12T02:38:02.541Z,16.94
2018-10-12T02:40:31.897Z,16.93
2018-10-12T02:43:00.923Z,16.93
2018-10-12T02:45:30.079Z,16.89
2018-10-12T02:47:59.172Z,16.89
2018-10-12T02:50:28.104Z,16.86
2018-10-12T02:52:57.103Z,16.84
2018-10-12T02:55:25.996Z,16.83
2018-10-12T02:57:55.038Z,16.80
2018-10-12T03:00:23.978Z,16.77
2018-10-12T03:02:53.140Z,16.75
2018-10-12T03:05:22.084Z,16.72
2018-10-12T03:07:52.234Z,16.70
2018-10-12T03:10:21.226Z,16.68
2018-10-12T03:12:50.263Z,16.65
2018-10-12T03:15:19.283Z,16.64
2018-10-12T03:17:48.233Z,16.63
2018-10-12T03:20:17.292Z,16.61
2018-10-12T03:22:46.606Z,16.60
2018-10-12T03:25:15.714Z,16.59
2018-10-12T03:27:55.653Z,16.57
2018-10-12T03:30:24.778Z,16.57
2018-10-12T03:32:53.831Z,16.56
2018-10-12T03:35:22.856Z,16.58
2018-10-12T03:37:51.950Z,16.57
2018-10-12T03:40:21.290Z,16.58
2018-10-12T03:42:50.311Z,16.57
2018-10-12T03:45:20.118Z,16.57
2018-10-12T03:47:49.282Z,16.56
2018-10-12T03:50:18.972Z,16.52
2018-10-12T03:52:48.176Z,16.55
2018-10-12T03:55:17.083Z,16.53
2018-10-12T03:57:46.069Z,16.52
2018-10-12T04:00:14.978Z,16.51
2018-10-12T04:02:43.978Z,16.50
2018-10-12T04:05:13.306Z,16.51
2018-10-12T04:07:42.338Z,16.51
2018-10-12T04:10:11.474Z,16.51
2018-10-12T04:12:40.766Z,16.50
2018-10-12T04:15:09.951Z,16.50
2018-10-12T04:17:39.228Z,16.50
2018-10-12T04:20:08.484Z,16.48
2018-10-12T04:22:37.402Z,16.47
2018-10-12T04:25:06.738Z,16.47
2018-10-12T04:27:35.757Z,16.46
2018-10-12T04:30:05.031Z,16.46
2018-10-12T04:32:34.442Z,16.46
2018-10-12T04:35:03.927Z,16.46
2018-10-12T04:37:32.866Z,16.45
2018-10-12T04:40:15.652Z,16.46
2018-10-12T04:42:44.575Z,16.44
2018-10-12T04:45:13.679Z,16.38
2018-10-12T04:47:42.632Z,16.43
2018-10-12T04:50:11.723Z,16.41
2018-10-12T04:52:40.710Z,16.39
2018-10-12T04:55:10.346Z,16.37
2018-10-12T04:57:39.535Z,16.38
2018-10-12T05:00:08.836Z,16.37
2018-10-12T05:02:37.881Z,16.33
2018-10-12T05:05:07.146Z,16.33
2018-10-12T05:07:36.654Z,16.31
2018-10-12T05:10:05.820Z,16.30
2018-10-12T05:12:34.915Z,16.29
2018-10-12T05:15:08.733Z,16.26
2018-10-12T05:17:38.225Z,16.25
2018-10-12T05:20:07.213Z,16.25
2018-10-12T05:22:36.213Z,16.23
2018-10-12T05:25:05.073Z,16.23
2018-10-12T05:27:34.167Z,16.22
2018-10-12T05:30:03.380Z,16.21
2018-10-12T05:32:33.012Z,16.20
2018-10-12T05:35:02.274Z,16.19
2018-10-12T05:37:31.108Z,16.20
2018-10-12T05:40:00.169Z,16.20
2018-10-12T05:42:29.515Z,16.22
2018-10-12T05:44:58.657Z,16.24
2018-10-12T05:47:27.718Z,16.23
2018-10-12T05:50:04.481Z,16.24
2018-10-12T05:52:34.203Z,16.25
2018-10-12T05:55:03.524Z,16.25
2018-10-12T05:57:34.495Z,16.27
2018-10-12T06:00:03.521Z,16.28
2018-10-12T06:02:32.914Z,16.30
2018-10-12T06:05:02.298Z,16.31
2018-10-12T06:07:31.370Z,16.32
2018-10-12T06:10:00.736Z,16.35
2018-10-12T06:12:29.819Z,16.38
2018-10-12T06:14:58.874Z,16.44
2018-10-12T06:17:28.275Z,16.46
2018-10-12T06:19:58.322Z,16.51
2018-10-12T06:22:27.290Z,16.54
2018-10-12T06:24:56.258Z,16.58
2018-10-12T06:27:25.199Z,16.60
2018-10-12T06:29:54.221Z,16.62
2018-10-12T06:32:23.115Z,16.64
2018-10-12T06:34:52.173Z,16.65
2018-10-12T06:37:21.146Z,16.65
2018-10-12T06:39:50.107Z,16.66
2018-10-12T06:42:19.210Z,16.69
2018-10-12T06:44:48.112Z,16.72
2018-10-12T06:47:17.079Z,16.75
2018-10-12T06:49:46.243Z,16.73
2018-10-12T06:52:16.281Z,16.81
2018-10-12T06:54:45.236Z,16.85
2018-10-12T06:57:14.844Z,16.88
2018-10-12T06:59:43.744Z,16.87
2018-10-12T07:02:16.779Z,16.93
2018-10-12T07:04:46.607Z,16.89
2018-10-12T07:07:16.139Z,16.98
2018-10-12T07:09:45.359Z,17.02
2018-10-12T07:12:15.052Z,17.05
2018-10-12T07:14:44.223Z,17.08
2018-10-12T07:17:13.090Z,17.13
2018-10-12T07:19:43.254Z,17.15
2018-10-12T07:22:12.010Z,17.14
2018-10-12T07:24:41.846Z,17.21
2018-10-12T07:27:11.325Z,17.24
2018-10-12T07:29:40.486Z,17.28
2018-10-12T07:32:09.603Z,17.33
2018-10-12T07:34:38.664Z,17.37
2018-10-12T07:37:08.247Z,17.43
2018-10-12T07:39:37.371Z,17.48
2018-10-12T07:42:06.586Z,17.52
2018-10-12T07:44:36.022Z,17.59
2018-10-12T07:47:04.994Z,17.65
2018-10-12T07:49:33.993Z,17.72
2018-10-12T07:52:03.042Z,17.80
2018-10-12T07:54:31.970Z,17.85
2018-10-12T07:57:05.444Z,17.92
2018-10-12T07:59:34.362Z,17.97
2018-10-12T08:02:03.354Z,18.05
2018-10-12T08:04:32.273Z,18.12
2018-10-12T08:07:01.281Z,18.19
2018-10-12T08:09:30.254Z,18.25
2018-10-12T08:11:59.516Z,18.32
2018-10-12T08:14:28.480Z,18.36
2018-10-12T08:16:57.400Z,18.47
2018-10-12T08:19:26.515Z,18.57
2018-10-12T08:21:56.483Z,18.64
2018-10-12T08:24:25.509Z,18.74
2018-10-12T08:26:54.505Z,18.83
2018-10-12T08:29:25.200Z,18.92
2018-10-12T08:31:54.313Z,19.02
2018-10-12T08:34:23.806Z,19.12
2018-10-12T08:36:52.638Z,19.21
2018-10-12T08:39:21.690Z,19.29
2018-10-12T08:41:51.374Z,19.38
2018-10-12T08:44:20.391Z,19.47
2018-10-12T08:46:49.331Z,19.55
2018-10-12T08:49:18.223Z,19.64
2018-10-12T08:51:47.167Z,19.73
2018-10-12T08:54:16.211Z,19.82
2018-10-12T08:56:45.379Z,19.90
2018-10-12T08:59:14.354Z,19.96
2018-10-12T09:01:43.346Z,20.04
2018-10-12T09:04:12.550Z,20.11
2018-10-12T09:06:41.482Z,20.20
2018-10-12T09:09:11.464Z,20.28
2018-10-12T09:11:41.063Z,20.39
2018-10-12T09:14:10.368Z,20.48
2018-10-12T09:16:39.302Z,20.58
2018-10-12T09:19:08.739Z,20.70
2018-10-12T09:21:37.726Z,20.79
2018-10-12T09:24:07.997Z,20.88
2018-10-12T09:26:37.036Z,20.99
2018-10-12T09:29:05.998Z,21.09
2018-10-12T09:31:35.087Z,21.20
2018-10-12T09:34:04.136Z,21.30
2018-10-12T09:36:33.097Z,21.40
2018-10-12T09:39:02.157Z,21.51
2018-10-12T09:41:30.914Z,21.63
2018-10-12T09:44:00.477Z,21.74
2018-10-12T09:46:29.451Z,21.83
2018-10-12T09:48:58.490Z,21.93
2018-10-12T09:51:27.466Z,22.02
2018-10-12T09:53:57.158Z,22.11
2018-10-12T09:56:26.125Z,22.18
2018-10-12T09:58:55.995Z,22.29
2018-10-12T10:01:30.036Z,22.39
2018-10-12T10:04:04.187Z,22.48
2018-10-12T10:06:33.219Z,22.56
2018-10-12T10:09:03.349Z,22.66
2018-10-12T10:11:32.559Z,22.76
2018-10-12T10:14:01.626Z,22.85
2018-10-12T10:16:30.736Z,22.94
2018-10-12T10:18:59.702Z,23.04
2018-10-12T10:21:28.823Z,23.12
2018-10-12T10:23:58.316Z,23.19
2018-10-12T10:26:27.310Z,23.31
2018-10-12T10:28:56.329Z,23.41
2018-10-12T10:31:25.359Z,23.49
2018-10-12T10:33:54.503Z,23.57
2018-10-12T10:36:24.102Z,23.64
2018-10-12T10:38:53.131Z,23.70
2018-10-12T10:41:22.166Z,23.75
2018-10-12T10:43:51.422Z,23.80
2018-10-12T10:46:20.526Z,23.86
2018-10-12T10:48:49.693Z,23.93
2018-10-12T10:51:18.690Z,23.98
2018-10-12T10:53:47.785Z,24.04
2018-10-12T10:56:17.240Z,24.10
2018-10-12T10:58:46.400Z,24.16
2018-10-12T11:01:15.420Z,24.22
2018-10-12T11:03:44.282Z,24.28
2018-10-12T11:06:13.315Z,24.34
2018-10-12T11:08:42.232Z,24.41
2018-10-12T11:11:11.174Z,24.49
2018-10-12T11:13:40.142Z,24.57
2018-10-12T11:16:09.185Z,24.63
2018-10-12T11:18:38.156Z,24.69
2018-10-12T11:21:08.192Z,24.73
2018-10-12T11:23:37.082Z,24.78
2018-10-12T11:26:06.297Z,24.84
2018-10-12T11:28:35.220Z,24.90
2018-10-12T11:31:04.354Z,24.95
2018-10-12T11:33:33.368Z,25.00
2018-10-12T11:36:02.410Z,25.03
2018-10-12T11:38:31.521Z,25.05
2018-10-12T11:41:00.668Z,25.09
2018-10-12T11:43:35.230Z,25.12
2018-10-12T11:46:04.059Z,25.15
2018-10-12T11:48:33.114Z,25.17
2018-10-12T11:51:02.586Z,25.23
2018-10-12T11:53:31.650Z,25.26
2018-10-12T11:56:00.605Z,25.29
2018-10-12T11:58:29.740Z,25.33
2018-10-12T12:00:58.872Z,25.35
2018-10-12T12:03:27.966Z,25.36
2018-10-12T12:05:56.917Z,25.37
2018-10-12T12:08:25.912Z,25.37
2018-10-12T12:10:54.914Z,25.38
2018-10-12T12:13:24.181Z,25.40
2018-10-12T12:15:53.807Z,25.41
2018-10-12T12:18:22.748Z,25.42
2018-10-12T12:20:51.806Z,25.42
2018-10-12T12:23:20.671Z,25.43
2018-10-12T12:25:49.621Z,25.44
2018-10-12T12:28:18.642Z,25.43
2018-10-12T12:30:47.553Z,25.45
2018-10-12T12:33:17.034Z,25.49
2018-10-12T12:35:46.832Z,25.50
2018-10-12T12:38:15.803Z,25.54
2018-10-12T12:40:44.761Z,25.60
2018-10-12T12:43:13.669Z,25.67
2018-10-12T12:45:42.563Z,25.72
2018-10-12T12:48:12.664Z,25.80
2018-10-12T12:50:41.870Z,25.89
2018-10-12T12:53:10.733Z,25.93
2018-10-12T12:55:40.542Z,25.95
2018-10-12T12:58:09.551Z,25.97
2018-10-12T13:00:38.754Z,26.01
2018-10-12T13:03:07.919Z,26.03
2018-10-12T13:05:37.476Z,26.04
2018-10-12T13:08:06.554Z,26.05
2018-10-12T13:10:35.595Z,26.07
2018-10-12T13:13:04.435Z,26.08
2018-10-12T13:15:33.770Z,26.09
2018-10-12T13:18:02.592Z,26.07
2018-10-12T13:20:31.520Z,26.08
2018-10-12T13:23:00.579Z,26.09
2018-10-12T13:25:29.691Z,26.09
2018-10-12T13:27:59.214Z,26.13
2018-10-12T13:30:28.302Z,26.13
2018-10-12T13:32:57.667Z,26.12
2018-10-12T13:35:27.173Z,26.08
2018-10-12T13:37:56.122Z,26.06
2018-10-12T13:40:24.947Z,26.06
2018-10-12T13:42:54.371Z,26.08
2018-10-12T13:45:23.375Z,26.08
2018-10-12T13:47:52.429Z,26.11
2018-10-12T13:50:22.276Z,26.16
2018-10-12T13:52:51.211Z,26.17
2018-10-12T13:55:20.055Z,26.18
2018-10-12T13:57:49.015Z,26.17
2018-10-12T14:00:17.951Z,26.15
2018-10-12T14:02:47.699Z,26.09
2018-10-12T14:05:17.566Z,26.06
2018-10-12T14:07:46.601Z,26.00
2018-10-12T14:10:16.086Z,25.98
2018-10-12T14:12:45.230Z,25.94
2018-10-12T14:15:14.193Z,25.87
2018-10-12T14:17:43.270Z,25.82
2018-10-12T14:20:12.179Z,25.77
2018-10-12T14:22:41.093Z,25.72
2018-10-12T14:25:10.513Z,25.66
2018-10-12T14:27:39.520Z,25.57
2018-10-12T14:30:08.719Z,25.47
2018-10-12T14:32:37.741Z,25.38
2018-10-12T14:35:06.912Z,25.30
2018-10-12T14:37:36.074Z,25.21
2018-10-12T14:40:05.171Z,25.12
2018-10-12T14:42:34.127Z,25.02
2018-10-12T14:45:04.311Z,24.93
2018-10-12T14:47:34.194Z,24.82
2018-10-12T14:50:03.499Z,24.72
2018-10-12T14:52:32.438Z,24.64
2018-10-12T14:55:01.464Z,24.56
2018-10-12T14:57:30.577Z,24.47
2018-10-12T14:59:59.612Z,24.38
2018-10-12T15:02:28.532Z,24.29
2018-10-12T15:04:57.632Z,24.21
2018-10-12T15:07:26.661Z,24.13
2018-10-12T15:09:56.225Z,24.06
2018-10-12T15:12:25.282Z,23.98
2018-10-12T15:15:05.341Z,23.91
2018-10-12T15:17:35.023Z,23.83
2018-10-12T15:20:04.116Z,23.76
2018-10-12T15:22:33.260Z,23.69
2018-10-12T15:25:02.241Z,23.63
2018-10-12T15:27:31.351Z,23.57
2018-10-12T15:30:01.276Z,23.52
2018-10-12T15:32:30.687Z,23.47
2018-10-12T15:34:59.824Z,23.42
2018-10-12T15:37:29.444Z,23.37
2018-10-12T15:39:58.893Z,23.33
2018-10-12T15:42:27.998Z,23.28
2018-10-12T15:44:57.299Z,23.24
2018-10-12T15:47:26.387Z,23.18
2018-10-12T15:49:55.517Z,23.14
2018-10-12T15:52:25.387Z,23.09
2018-10-12T15:54:54.550Z,23.06
2018-10-12T15:57:28.590Z,23.00
2018-10-12T15:59:57.411Z,22.96
2018-10-12T16:02:26.484Z,22.91
2018-10-12T16:04:55.429Z,22.86
2018-10-12T16:07:25.296Z,22.82
2018-10-12T16:09:54.896Z,22.78
2018-10-12T16:12:24.454Z,22.74
2018-10-12T16:14:53.859Z,22.68
2018-10-12T16:17:22.982Z,22.65
2018-10-12T16:19:52.028Z,22.62
2018-10-12T16:22:21.252Z,22.58
2018-10-12T16:25:01.346Z,22.53
2018-10-12T16:27:30.926Z,22.48
2018-10-12T16:29:59.980Z,22.44
2018-10-12T16:32:29.534Z,22.40
2018-10-12T16:34:58.328Z,22.38
2018-10-12T16:37:27.497Z,22.34
2018-10-12T16:39:56.707Z,22.29
2018-10-12T16:42:25.805Z,22.26
2018-10-12T16:44:55.162Z,22.22
2018-10-12T16:47:24.544Z,22.18
2018-10-12T16:49:53.825Z,22.14
2018-10-12T16:52:22.787Z,22.11
2018-10-12T16:54:51.926Z,22.05
2018-10-12T16:57:25.035Z,22.02
2018-10-12T16:59:54.615Z,21.98
2018-10-12T17:02:23.636Z,21.93
2018-10-12T17:04:52.752Z,21.87
2018-10-12T17:07:21.804Z,21.84
2018-10-12T17:09:51.098Z,21.80
2018-10-12T17:12:20.065Z,21.75
2018-10-12T17:14:49.209Z,21.71
2018-10-12T17:17:18.194Z,21.66
2018-10-12T17:19:47.458Z,21.59
2018-10-12T17:22:16.297Z,21.54
2018-10-12T17:24:45.268Z,21.48
2018-10-12T17:27:14.442Z,21.43
2018-10-12T17:29:43.348Z,21.38
2018-10-12T17:32:12.378Z,21.34
2018-10-12T17:34:41.284Z,21.27
2018-10-12T17:37:10.975Z,21.23
2018-10-12T17:39:40.150Z,21.20
2018-10-12T17:42:16.590Z,21.15
2018-10-12T17:44:46.197Z,21.09
2018-10-12T17:47:15.992Z,21.04
2018-10-12T17:49:45.724Z,20.99
2018-10-12T17:52:14.969Z,20.95
2018-10-12T17:54:43.993Z,20.90
2018-10-12T17:57:13.378Z,20.87
2018-10-12T17:59:43.178Z,20.83
2018-10-12T18:02:12.182Z,20.79
2018-10-12T18:04:41.262Z,20.75
2018-10-12T18:07:10.445Z,20.71
2018-10-12T18:09:39.977Z,20.68
2018-10-12T18:12:09.245Z,20.64
2018-10-12T18:14:38.472Z,20.60
2018-10-12T18:17:07.758Z,20.57
2018-10-12T18:19:36.733Z,20.53
2018-10-12T18:22:06.214Z,20.50
2018-10-12T18:24:35.882Z,20.46
2018-10-12T18:27:05.111Z,20.44
2018-10-12T18:29:34.139Z,20.41
2018-10-12T18:32:03.371Z,20.36
2018-10-12T18:34:32.369Z,20.33
2018-10-12T18:37:01.477Z,20.28
2018-10-12T18:39:31.013Z,20.25
2018-10-12T18:42:00.775Z,20.22
2018-10-12T18:44:29.754Z,20.16
2018-10-12T18:46:59.163Z,20.13
2018-10-12T18:49:28.756Z,20.09
2018-10-12T18:51:57.783Z,20.06
2018-10-12T18:54:26.679Z,20.03
2018-10-12T18:56:56.063Z,20.00
2018-10-12T18:59:25.085Z,19.96
2018-10-12T19:02:00.797Z,19.93
2018-10-12T19:04:30.005Z,19.91
2018-10-12T19:06:59.316Z,19.87
2018-10-12T19:09:29.240Z,19.83
2018-10-12T19:11:58.319Z,19.79
2018-10-12T19:14:27.408Z,19.75
2018-10-12T19:16:56.350Z,19.71
2018-10-12T19:19:25.358Z,19.68
2018-10-12T19:21:55.212Z,19.64
2018-10-12T19:24:24.477Z,19.61
2018-10-12T19:26:53.608Z,19.58
2018-10-12T19:29:22.690Z,19.55
2018-10-12T19:31:51.733Z,19.52
2018-10-12T19:34:21.132Z,19.48
2018-10-12T19:36:50.260Z,19.46
2018-10-12T19:39:19.276Z,19.41
2018-10-12T19:41:48.441Z,19.39
2018-10-12T19:44:17.450Z,19.37
2018-10-12T19:46:46.741Z,19.34
2018-10-12T19:49:16.187Z,19.30
2018-10-12T19:51:45.522Z,19.25
2018-10-12T19:54:14.583Z,19.23
2018-10-12T19:56:43.683Z,19.21
2018-10-12T19:59:12.847Z,19.18
2018-10-12T20:01:41.988Z,19.16
2018-10-12T20:04:11.206Z,19.12
2018-10-12T20:06:40.206Z,19.10
2018-10-12T20:09:11.420Z,19.08
2018-10-12T20:11:41.022Z,19.06
2018-10-12T20:14:10.156Z,19.05
2018-10-12T20:16:39.338Z,19.03
2018-10-12T20:19:08.486Z,19.01
2018-10-12T20:21:37.866Z,18.99
2018-10-12T20:24:07.542Z,18.97
2018-10-12T20:26:36.639Z,18.95
2018-10-12T20:29:05.616Z,18.93
2018-10-12T20:31:34.845Z,18.89
2018-10-12T20:34:04.132Z,18.86
2018-10-12T20:36:33.218Z,18.83
2018-10-12T20:39:02.742Z,18.81
2018-10-12T20:41:32.382Z,18.79
2018-10-12T20:44:01.538Z,18.78
2018-10-12T20:46:30.635Z,18.75
2018-10-12T20:48:59.684Z,18.75
2018-10-12T20:51:28.676Z,18.74
2018-10-12T20:53:57.921Z,18.72
2018-10-12T20:56:26.860Z,18.71
2018-10-12T20:58:55.792Z,18.70
2018-10-12T21:01:24.877Z,18.69
2018-10-12T21:03:53.869Z,18.66
2018-10-12T21:06:22.941Z,18.65
2018-10-12T21:08:52.142Z,18.64
2018-10-12T21:11:21.273Z,18.63
2018-10-12T21:13:50.581Z,18.60
2018-10-12T21:16:19.728Z,18.59
2018-10-12T21:18:48.799Z,18.56
2018-10-12T21:21:17.886Z,18.52
2018-10-12T21:23:46.670Z,18.50
2018-10-12T21:26:15.758Z,18.48
2018-10-12T21:28:44.712Z,18.45
2018-10-12T21:31:13.808Z,18.43
2018-10-12T21:33:43.120Z,18.42
2018-10-12T21:36:12.947Z,18.40
2018-10-12T21:38:42.037Z,18.38
2018-10-12T21:41:11.116Z,18.35
2018-10-12T21:43:40.649Z,18.34
2018-10-12T21:46:09.570Z,18.33
2018-10-12T21:48:39.048Z,18.32
2018-10-12T21:51:09.084Z,18.29
2018-10-12T21:53:38.220Z,18.27
2018-10-12T21:56:07.307Z,18.24
2018-10-12T21:58:36.132Z,18.23
2018-10-12T22:01:06.136Z,18.21
2018-10-12T22:03:36.386Z,18.19
2018-10-12T22:06:05.639Z,18.17
2018-10-12T22:08:39.911Z,18.15
2018-10-12T22:11:08.884Z,18.14
2018-10-12T22:13:38.951Z,18.12
2018-10-12T22:16:08.189Z,18.10
2018-10-12T22:18:37.719Z,18.10
2018-10-12T22:21:07.124Z,18.08
2018-10-12T22:23:36.533Z,18.06
2018-10-12T22:26:05.553Z,18.05
2018-10-12T22:28:34.854Z,18.03
2018-10-12T22:31:03.820Z,18.01
2018-10-12T22:33:32.872Z,18.00
2018-10-12T22:36:01.842Z,17.98
2018-10-12T22:38:31.421Z,17.96
2018-10-12T22:41:00.403Z,17.94
2018-10-12T22:43:29.433Z,17.93
2018-10-12T22:45:58.698Z,17.91
2018-10-12T22:48:28.327Z,17.90
2018-10-12T22:50:57.260Z,17.88
2018-10-12T22:53:26.182Z,17.85
2018-10-12T22:55:55.142Z,17.83
2018-10-12T22:58:24.091Z,17.80
2018-10-12T23:00:53.059Z,17.79
2018-10-12T23:03:21.984Z,17.77
2018-10-12T23:05:51.386Z,17.75
2018-10-12T23:08:20.439Z,17.73
2018-10-12T23:10:49.364Z,17.70
2018-10-12T23:13:18.462Z,17.68
2018-10-12T23:15:50.288Z,17.65
2018-10-12T23:18:19.319Z,17.63
2018-10-12T23:20:48.297Z,17.60
2018-10-12T23:23:17.347Z,17.59
2018-10-12T23:25:46.758Z,17.57
2018-10-12T23:28:15.885Z,17.55
2018-10-12T23:30:44.912Z,17.54
2018-10-12T23:33:24.840Z,17.52
2018-10-12T23:35:53.955Z,17.49
2018-10-12T23:38:22.930Z,17.46
2018-10-12T23:40:52.350Z,17.45
2018-10-12T23:43:21.327Z,17.43
2018-10-12T23:45:50.418Z,17.40
2018-10-12T23:48:19.895Z,17.33
2018-10-12T23:50:49.044Z,17.36
2018-10-12T23:53:18.450Z,17.33
2018-10-12T23:55:47.530Z,17.32
2018-10-12T23:58:16.740Z,17.31
